sensor_id;sensor_type;location;lat;lon;timestamp;P1;durP1;ratioP1;P2;durP2;ratioP2
42124;SDS011;27787;44.594;11.046;2022-12-11T00:02:24;49.65;;;22.38;;
42124;SDS011;27787;44.594;11.046;2022-12-11T00:05:08;47.47;;;22.77;;
42124;SDS011;27787;44.594;11.046;2022-12-11T00:07:53;44.75;;;20.92;;
42124;SDS011;27787;44.594;11.046;2022-12-11T00:10:37;43.25;;;20.23;;
42124;SDS011;27787;44.594;11.046;2022-12-11T00:13:22;45.87;;;20.63;;
42124;SDS011;27787;44.594;11.046;2022-12-11T00:16:07;41.50;;;20.02;;
42124;SDS011;27787;44.594;11.046;2022-12-11T00:18:52;42.57;;;21.07;;
42124;SDS011;27787;44.594;11.046;2022-12-11T00:21:36;45.85;;;20.67;;
42124;SDS011;27787;44.594;11.046;2022-12-11T00:24:20;45.55;;;20.77;;
42124;SDS011;27787;44.594;11.046;2022-12-11T00:27:04;39.05;;;19.38;;
42124;SDS011;27787;44.594;11.046;2022-12-11T00:29:48;46.55;;;21.95;;
42124;SDS011;27787;44.594;11.046;2022-12-11T00:32:33;44.88;;;21.27;;
42124;SDS011;27787;44.594;11.046;2022-12-11T00:35:17;42.83;;;20.20;;
42124;SDS011;27787;44.594;11.046;2022-12-11T00:38:01;48.70;;;20.92;;
42124;SDS011;27787;44.594;11.046;2022-12-11T00:40:45;44.60;;;21.25;;
42124;SDS011;27787;44.594;11.046;2022-12-11T00:43:30;45.47;;;20.85;;
42124;SDS011;27787;44.594;11.046;2022-12-11T00:46:15;43.97;;;21.98;;
42124;SDS011;27787;44.594;11.046;2022-12-11T00:48:59;43.53;;;21.55;;
42124;SDS011;27787;44.594;11.046;2022-12-11T00:51:43;44.47;;;20.92;;
42124;SDS011;27787;44.594;11.046;2022-12-11T00:54:28;44.60;;;21.65;;
42124;SDS011;27787;44.594;11.046;2022-12-11T00:57:12;43.30;;;21.27;;
42124;SDS011;27787;44.594;11.046;2022-12-11T00:59:56;43.10;;;21.40;;
42124;SDS011;27787;44.594;11.046;2022-12-11T01:02:40;41.50;;;20.30;;
42124;SDS011;27787;44.594;11.046;2022-12-11T01:05:24;44.08;;;21.33;;
42124;SDS011;27787;44.594;11.046;2022-12-11T01:08:08;47.22;;;22.08;;
42124;SDS011;27787;44.594;11.046;2022-12-11T01:10:59;42.58;;;20.48;;
42124;SDS011;27787;44.594;11.046;2022-12-11T01:13:45;48.40;;;21.73;;
42124;SDS011;27787;44.594;11.046;2022-12-11T01:16:29;46.08;;;22.50;;
42124;SDS011;27787;44.594;11.046;2022-12-11T01:19:14;42.40;;;20.42;;
42124;SDS011;27787;44.594;11.046;2022-12-11T01:21:58;42.25;;;19.77;;
42124;SDS011;27787;44.594;11.046;2022-12-11T01:24:43;45.70;;;21.83;;
42124;SDS011;27787;44.594;11.046;2022-12-11T01:27:27;40.67;;;20.48;;
42124;SDS011;27787;44.594;11.046;2022-12-11T01:30:12;45.83;;;20.42;;
42124;SDS011;27787;44.594;11.046;2022-12-11T01:32:57;45.25;;;20.85;;
42124;SDS011;27787;44.594;11.046;2022-12-11T01:38:27;44.65;;;19.58;;
42124;SDS011;27787;44.594;11.046;2022-12-11T01:41:11;41.85;;;20.40;;
42124;SDS011;27787;44.594;11.046;2022-12-11T01:44:02;46.42;;;20.98;;
42124;SDS011;27787;44.594;11.046;2022-12-11T01:46:48;44.45;;;20.83;;
42124;SDS011;27787;44.594;11.046;2022-12-11T01:49:32;46.92;;;21.10;;
42124;SDS011;27787;44.594;11.046;2022-12-11T01:52:18;44.78;;;20.85;;
42124;SDS011;27787;44.594;11.046;2022-12-11T01:55:04;45.10;;;22.55;;
42124;SDS011;27787;44.594;11.046;2022-12-11T01:57:50;41.88;;;21.02;;
42124;SDS011;27787;44.594;11.046;2022-12-11T02:00:35;45.92;;;21.17;;
42124;SDS011;27787;44.594;11.046;2022-12-11T02:03:20;41.67;;;20.23;;
42124;SDS011;27787;44.594;11.046;2022-12-11T02:06:04;45.67;;;21.75;;
42124;SDS011;27787;44.594;11.046;2022-12-11T02:08:49;43.72;;;21.55;;
42124;SDS011;27787;44.594;11.046;2022-12-11T02:11:42;41.97;;;21.60;;
42124;SDS011;27787;44.594;11.046;2022-12-11T02:17:43;42.80;;;21.13;;
42124;SDS011;27787;44.594;11.046;2022-12-11T02:20:38;48.28;;;22.05;;
42124;SDS011;27787;44.594;11.046;2022-12-11T02:26:30;47.08;;;21.98;;
42124;SDS011;27787;44.594;11.046;2022-12-11T02:32:54;44.75;;;20.75;;
42124;SDS011;27787;44.594;11.046;2022-12-11T02:35:41;39.55;;;19.27;;
42124;SDS011;27787;44.594;11.046;2022-12-11T02:38:30;44.28;;;21.08;;
42124;SDS011;27787;44.594;11.046;2022-12-11T02:41:18;37.95;;;19.63;;
42124;SDS011;27787;44.594;11.046;2022-12-11T02:44:04;42.83;;;20.08;;
42124;SDS011;27787;44.594;11.046;2022-12-11T02:46:49;40.25;;;20.17;;
42124;SDS011;27787;44.594;11.046;2022-12-11T02:49:35;42.63;;;20.20;;
42124;SDS011;27787;44.594;11.046;2022-12-11T02:52:20;38.87;;;18.40;;
42124;SDS011;27787;44.594;11.046;2022-12-11T02:55:06;40.90;;;19.77;;
42124;SDS011;27787;44.594;11.046;2022-12-11T02:58:04;39.22;;;19.13;;
42124;SDS011;27787;44.594;11.046;2022-12-11T03:00:55;37.65;;;19.48;;
42124;SDS011;27787;44.594;11.046;2022-12-11T03:03:39;41.80;;;19.08;;
42124;SDS011;27787;44.594;11.046;2022-12-11T03:06:25;37.80;;;17.75;;
42124;SDS011;27787;44.594;11.046;2022-12-11T03:09:14;39.95;;;19.13;;
42124;SDS011;27787;44.594;11.046;2022-12-11T03:11:59;40.25;;;19.42;;
42124;SDS011;27787;44.594;11.046;2022-12-11T03:14:43;38.33;;;20.05;;
42124;SDS011;27787;44.594;11.046;2022-12-11T03:20:46;37.33;;;18.75;;
42124;SDS011;27787;44.594;11.046;2022-12-11T03:23:51;38.22;;;19.40;;
42124;SDS011;27787;44.594;11.046;2022-12-11T03:26:52;39.58;;;18.52;;
42124;SDS011;27787;44.594;11.046;2022-12-11T03:29:39;37.28;;;18.38;;
42124;SDS011;27787;44.594;11.046;2022-12-11T03:32:41;35.72;;;17.05;;
42124;SDS011;27787;44.594;11.046;2022-12-11T03:35:32;37.80;;;18.35;;
42124;SDS011;27787;44.594;11.046;2022-12-11T03:38:23;32.35;;;15.63;;
42124;SDS011;27787;44.594;11.046;2022-12-11T03:41:14;33.20;;;16.70;;
42124;SDS011;27787;44.594;11.046;2022-12-11T03:44:02;33.35;;;16.13;;
42124;SDS011;27787;44.594;11.046;2022-12-11T03:46:47;32.47;;;16.38;;
42124;SDS011;27787;44.594;11.046;2022-12-11T03:49:35;33.05;;;16.27;;
42124;SDS011;27787;44.594;11.046;2022-12-11T03:52:23;37.92;;;18.25;;
42124;SDS011;27787;44.594;11.046;2022-12-11T03:55:11;31.67;;;15.23;;
42124;SDS011;27787;44.594;11.046;2022-12-11T03:57:59;34.80;;;15.40;;
42124;SDS011;27787;44.594;11.046;2022-12-11T04:00:43;36.00;;;16.50;;
42124;SDS011;27787;44.594;11.046;2022-12-11T04:03:27;35.67;;;17.27;;
42124;SDS011;27787;44.594;11.046;2022-12-11T04:06:12;26.10;;;12.40;;
42124;SDS011;27787;44.594;11.046;2022-12-11T04:08:56;35.50;;;16.63;;
42124;SDS011;27787;44.594;11.046;2022-12-11T04:11:40;33.63;;;15.82;;
42124;SDS011;27787;44.594;11.046;2022-12-11T04:14:26;31.95;;;15.55;;
42124;SDS011;27787;44.594;11.046;2022-12-11T04:17:31;29.52;;;14.27;;
42124;SDS011;27787;44.594;11.046;2022-12-11T04:20:35;30.95;;;14.60;;
42124;SDS011;27787;44.594;11.046;2022-12-11T04:23:38;30.98;;;14.50;;
42124;SDS011;27787;44.594;11.046;2022-12-11T04:26:45;30.83;;;14.25;;
42124;SDS011;27787;44.594;11.046;2022-12-11T04:29:30;33.67;;;14.10;;
42124;SDS011;27787;44.594;11.046;2022-12-11T04:32:14;29.90;;;13.88;;
42124;SDS011;27787;44.594;11.046;2022-12-11T04:34:58;28.40;;;14.85;;
42124;SDS011;27787;44.594;11.046;2022-12-11T04:37:42;28.52;;;14.80;;
42124;SDS011;27787;44.594;11.046;2022-12-11T04:40:26;29.60;;;14.80;;
42124;SDS011;27787;44.594;11.046;2022-12-11T04:43:11;32.67;;;15.38;;
42124;SDS011;27787;44.594;11.046;2022-12-11T04:46:15;33.55;;;15.25;;
42124;SDS011;27787;44.594;11.046;2022-12-11T04:49:03;33.60;;;14.88;;
42124;SDS011;27787;44.594;11.046;2022-12-11T04:51:48;35.10;;;16.00;;
42124;SDS011;27787;44.594;11.046;2022-12-11T04:54:32;37.05;;;15.40;;
42124;SDS011;27787;44.594;11.046;2022-12-11T04:57:16;30.98;;;16.27;;
42124;SDS011;27787;44.594;11.046;2022-12-11T05:00:02;33.92;;;16.33;;
42124;SDS011;27787;44.594;11.046;2022-12-11T05:02:47;32.95;;;16.83;;
42124;SDS011;27787;44.594;11.046;2022-12-11T05:05:32;31.83;;;15.27;;
42124;SDS011;27787;44.594;11.046;2022-12-11T05:08:16;34.50;;;15.40;;
42124;SDS011;27787;44.594;11.046;2022-12-11T05:11:06;32.45;;;15.45;;
42124;SDS011;27787;44.594;11.046;2022-12-11T05:13:53;39.28;;;16.88;;
42124;SDS011;27787;44.594;11.046;2022-12-11T05:16:37;36.67;;;15.32;;
42124;SDS011;27787;44.594;11.046;2022-12-11T05:19:22;35.58;;;15.32;;
42124;SDS011;27787;44.594;11.046;2022-12-11T05:22:06;36.95;;;15.45;;
42124;SDS011;27787;44.594;11.046;2022-12-11T05:24:50;35.40;;;16.75;;
42124;SDS011;27787;44.594;11.046;2022-12-11T05:27:35;33.45;;;16.33;;
42124;SDS011;27787;44.594;11.046;2022-12-11T05:30:19;39.38;;;15.63;;
42124;SDS011;27787;44.594;11.046;2022-12-11T05:33:03;35.25;;;15.40;;
42124;SDS011;27787;44.594;11.046;2022-12-11T05:35:47;35.28;;;15.90;;
42124;SDS011;27787;44.594;11.046;2022-12-11T05:38:32;31.53;;;14.13;;
42124;SDS011;27787;44.594;11.046;2022-12-11T05:41:17;32.45;;;15.13;;
42124;SDS011;27787;44.594;11.046;2022-12-11T05:44:03;36.22;;;15.55;;
42124;SDS011;27787;44.594;11.046;2022-12-11T05:46:48;37.35;;;16.60;;
42124;SDS011;27787;44.594;11.046;2022-12-11T05:49:32;38.53;;;16.23;;
42124;SDS011;27787;44.594;11.046;2022-12-11T05:52:18;39.78;;;18.70;;
42124;SDS011;27787;44.594;11.046;2022-12-11T05:55:02;35.60;;;15.35;;
42124;SDS011;27787;44.594;11.046;2022-12-11T05:57:47;36.90;;;14.73;;
42124;SDS011;27787;44.594;11.046;2022-12-11T06:00:31;33.47;;;15.98;;
42124;SDS011;27787;44.594;11.046;2022-12-11T06:03:23;35.92;;;15.68;;
42124;SDS011;27787;44.594;11.046;2022-12-11T06:07:24;40.80;;;15.10;;
42124;SDS011;27787;44.594;11.046;2022-12-11T06:10:09;36.22;;;16.52;;
42124;SDS011;27787;44.594;11.046;2022-12-11T06:12:54;34.00;;;15.40;;
42124;SDS011;27787;44.594;11.046;2022-12-11T06:15:38;35.00;;;15.68;;
42124;SDS011;27787;44.594;11.046;2022-12-11T06:18:23;32.85;;;14.85;;
42124;SDS011;27787;44.594;11.046;2022-12-11T06:24:00;37.10;;;15.70;;
42124;SDS011;27787;44.594;11.046;2022-12-11T06:26:46;42.85;;;18.83;;
42124;SDS011;27787;44.594;11.046;2022-12-11T06:29:30;43.80;;;19.75;;
42124;SDS011;27787;44.594;11.046;2022-12-11T06:32:15;46.53;;;19.35;;
42124;SDS011;27787;44.594;11.046;2022-12-11T06:34:59;43.97;;;18.98;;
42124;SDS011;27787;44.594;11.046;2022-12-11T06:37:43;45.95;;;19.85;;
42124;SDS011;27787;44.594;11.046;2022-12-11T06:40:27;42.35;;;17.30;;
42124;SDS011;27787;44.594;11.046;2022-12-11T06:43:11;38.75;;;17.13;;
42124;SDS011;27787;44.594;11.046;2022-12-11T06:45:56;40.47;;;18.38;;
42124;SDS011;27787;44.594;11.046;2022-12-11T06:48:41;36.58;;;15.65;;
42124;SDS011;27787;44.594;11.046;2022-12-11T06:51:25;42.00;;;16.75;;
42124;SDS011;27787;44.594;11.046;2022-12-11T06:54:10;33.15;;;14.93;;
42124;SDS011;27787;44.594;11.046;2022-12-11T06:56:54;37.22;;;15.82;;
42124;SDS011;27787;44.594;11.046;2022-12-11T06:59:38;34.15;;;15.68;;
42124;SDS011;27787;44.594;11.046;2022-12-11T07:02:22;32.17;;;14.05;;
42124;SDS011;27787;44.594;11.046;2022-12-11T07:05:07;34.33;;;15.98;;
42124;SDS011;27787;44.594;11.046;2022-12-11T07:07:54;39.05;;;14.40;;
42124;SDS011;27787;44.594;11.046;2022-12-11T07:10:38;32.25;;;15.02;;
42124;SDS011;27787;44.594;11.046;2022-12-11T07:13:23;30.35;;;14.27;;
42124;SDS011;27787;44.594;11.046;2022-12-11T07:16:08;40.10;;;13.98;;
42124;SDS011;27787;44.594;11.046;2022-12-11T07:21:37;32.33;;;13.65;;
42124;SDS011;27787;44.594;11.046;2022-12-11T07:24:21;32.08;;;13.63;;
42124;SDS011;27787;44.594;11.046;2022-12-11T07:27:06;30.65;;;14.45;;
42124;SDS011;27787;44.594;11.046;2022-12-11T07:29:51;34.65;;;13.70;;
42124;SDS011;27787;44.594;11.046;2022-12-11T07:32:35;31.02;;;14.05;;
42124;SDS011;27787;44.594;11.046;2022-12-11T07:35:19;32.03;;;13.80;;
42124;SDS011;27787;44.594;11.046;2022-12-11T07:38:03;37.22;;;14.10;;
42124;SDS011;27787;44.594;11.046;2022-12-11T07:40:48;28.35;;;12.75;;
42124;SDS011;27787;44.594;11.046;2022-12-11T07:43:33;26.38;;;12.45;;
42124;SDS011;27787;44.594;11.046;2022-12-11T07:46:19;28.50;;;12.23;;
42124;SDS011;27787;44.594;11.046;2022-12-11T07:49:08;28.98;;;12.90;;
42124;SDS011;27787;44.594;11.046;2022-12-11T07:51:53;28.23;;;12.15;;
42124;SDS011;27787;44.594;11.046;2022-12-11T07:54:37;27.85;;;12.93;;
42124;SDS011;27787;44.594;11.046;2022-12-11T07:57:21;25.55;;;11.70;;
42124;SDS011;27787;44.594;11.046;2022-12-11T08:00:06;28.08;;;12.52;;
42124;SDS011;27787;44.594;11.046;2022-12-11T08:02:55;32.25;;;14.13;;
42124;SDS011;27787;44.594;11.046;2022-12-11T08:05:39;26.10;;;12.55;;
42124;SDS011;27787;44.594;11.046;2022-12-11T08:08:31;31.77;;;13.38;;
42124;SDS011;27787;44.594;11.046;2022-12-11T08:11:16;31.67;;;13.35;;
42124;SDS011;27787;44.594;11.046;2022-12-11T08:14:00;33.45;;;14.02;;
42124;SDS011;27787;44.594;11.046;2022-12-11T08:16:45;33.53;;;13.27;;
42124;SDS011;27787;44.594;11.046;2022-12-11T08:19:30;35.60;;;13.83;;
42124;SDS011;27787;44.594;11.046;2022-12-11T08:22:14;32.25;;;14.32;;
42124;SDS011;27787;44.594;11.046;2022-12-11T08:24:59;30.70;;;13.68;;
42124;SDS011;27787;44.594;11.046;2022-12-11T08:27:45;32.85;;;13.85;;
42124;SDS011;27787;44.594;11.046;2022-12-11T08:30:29;30.23;;;12.80;;
42124;SDS011;27787;44.594;11.046;2022-12-11T08:33:14;30.48;;;13.57;;
42124;SDS011;27787;44.594;11.046;2022-12-11T08:36:01;30.30;;;12.57;;
42124;SDS011;27787;44.594;11.046;2022-12-11T08:38:46;32.97;;;13.63;;
42124;SDS011;27787;44.594;11.046;2022-12-11T08:41:30;28.05;;;12.88;;
42124;SDS011;27787;44.594;11.046;2022-12-11T08:44:14;31.67;;;13.13;;
42124;SDS011;27787;44.594;11.046;2022-12-11T08:46:58;28.42;;;12.85;;
42124;SDS011;27787;44.594;11.046;2022-12-11T08:49:43;28.85;;;12.18;;
42124;SDS011;27787;44.594;11.046;2022-12-11T08:52:27;27.10;;;11.90;;
42124;SDS011;27787;44.594;11.046;2022-12-11T08:55:14;30.25;;;13.32;;
42124;SDS011;27787;44.594;11.046;2022-12-11T08:57:58;30.10;;;13.27;;
42124;SDS011;27787;44.594;11.046;2022-12-11T09:03:28;29.60;;;12.77;;
42124;SDS011;27787;44.594;11.046;2022-12-11T09:06:13;27.52;;;12.50;;
42124;SDS011;27787;44.594;11.046;2022-12-11T09:09:00;26.77;;;12.50;;
42124;SDS011;27787;44.594;11.046;2022-12-11T09:11:45;29.98;;;12.60;;
42124;SDS011;27787;44.594;11.046;2022-12-11T09:14:29;27.17;;;13.35;;
42124;SDS011;27787;44.594;11.046;2022-12-11T09:17:13;33.58;;;14.10;;
42124;SDS011;27787;44.594;11.046;2022-12-11T09:19:57;35.22;;;14.63;;
42124;SDS011;27787;44.594;11.046;2022-12-11T09:22:42;35.28;;;15.38;;
42124;SDS011;27787;44.594;11.046;2022-12-11T09:25:26;37.03;;;15.65;;
42124;SDS011;27787;44.594;11.046;2022-12-11T09:28:10;39.70;;;16.38;;
42124;SDS011;27787;44.594;11.046;2022-12-11T09:30:54;37.45;;;17.45;;
42124;SDS011;27787;44.594;11.046;2022-12-11T09:33:39;52.55;;;18.48;;
42124;SDS011;27787;44.594;11.046;2022-12-11T09:36:23;41.00;;;17.60;;
42124;SDS011;27787;44.594;11.046;2022-12-11T09:39:09;41.38;;;17.95;;
42124;SDS011;27787;44.594;11.046;2022-12-11T09:45:02;49.13;;;18.98;;
42124;SDS011;27787;44.594;11.046;2022-12-11T09:50:34;47.95;;;18.90;;
42124;SDS011;27787;44.594;11.046;2022-12-11T09:53:25;39.97;;;18.20;;
42124;SDS011;27787;44.594;11.046;2022-12-11T09:59:08;46.55;;;17.42;;
42124;SDS011;27787;44.594;11.046;2022-12-11T10:05:21;44.78;;;16.70;;
42124;SDS011;27787;44.594;11.046;2022-12-11T10:11:30;47.72;;;18.40;;
42124;SDS011;27787;44.594;11.046;2022-12-11T10:17:34;49.22;;;20.42;;
42124;SDS011;27787;44.594;11.046;2022-12-11T10:20:25;50.67;;;20.45;;
42124;SDS011;27787;44.594;11.046;2022-12-11T10:23:19;50.22;;;19.23;;
42124;SDS011;27787;44.594;11.046;2022-12-11T10:26:08;48.65;;;19.80;;
42124;SDS011;27787;44.594;11.046;2022-12-11T10:29:05;61.78;;;20.30;;
42124;SDS011;27787;44.594;11.046;2022-12-11T10:31:57;44.42;;;18.92;;
42124;SDS011;27787;44.594;11.046;2022-12-11T10:34:41;53.58;;;20.20;;
42124;SDS011;27787;44.594;11.046;2022-12-11T10:37:29;42.80;;;17.70;;
42124;SDS011;27787;44.594;11.046;2022-12-11T10:40:14;45.28;;;18.95;;
42124;SDS011;27787;44.594;11.046;2022-12-11T10:42:59;45.17;;;19.15;;
42124;SDS011;27787;44.594;11.046;2022-12-11T10:45:50;41.13;;;16.70;;
42124;SDS011;27787;44.594;11.046;2022-12-11T10:48:44;39.85;;;17.13;;
42124;SDS011;27787;44.594;11.046;2022-12-11T10:51:36;36.20;;;16.17;;
42124;SDS011;27787;44.594;11.046;2022-12-11T10:57:12;38.75;;;17.23;;
42124;SDS011;27787;44.594;11.046;2022-12-11T11:02:43;34.25;;;15.25;;
42124;SDS011;27787;44.594;11.046;2022-12-11T11:10:59;36.75;;;15.15;;
42124;SDS011;27787;44.594;11.046;2022-12-11T11:13:44;36.58;;;14.60;;
42124;SDS011;27787;44.594;11.046;2022-12-11T11:16:28;36.45;;;15.68;;
42124;SDS011;27787;44.594;11.046;2022-12-11T11:19:17;32.28;;;13.30;;
42124;SDS011;27787;44.594;11.046;2022-12-11T11:22:16;29.42;;;13.23;;
42124;SDS011;27787;44.594;11.046;2022-12-11T11:25:02;28.88;;;12.68;;
42124;SDS011;27787;44.594;11.046;2022-12-11T11:30:34;25.35;;;11.07;;
42124;SDS011;27787;44.594;11.046;2022-12-11T11:33:22;21.70;;;10.70;;
42124;SDS011;27787;44.594;11.046;2022-12-11T11:36:16;22.10;;;10.55;;
42124;SDS011;27787;44.594;11.046;2022-12-11T11:42:21;23.88;;;11.02;;
42124;SDS011;27787;44.594;11.046;2022-12-11T11:45:18;22.30;;;11.18;;
42124;SDS011;27787;44.594;11.046;2022-12-11T11:48:26;21.45;;;10.75;;
42124;SDS011;27787;44.594;11.046;2022-12-11T11:51:37;25.13;;;12.35;;
42124;SDS011;27787;44.594;11.046;2022-12-11T11:54:32;22.00;;;10.52;;
42124;SDS011;27787;44.594;11.046;2022-12-11T12:00:25;22.38;;;11.15;;
42124;SDS011;27787;44.594;11.046;2022-12-11T12:03:12;30.63;;;11.70;;
42124;SDS011;27787;44.594;11.046;2022-12-11T12:09:04;24.73;;;11.40;;
42124;SDS011;27787;44.594;11.046;2022-12-11T12:17:52;22.98;;;11.30;;
42124;SDS011;27787;44.594;11.046;2022-12-11T12:26:33;24.98;;;11.90;;
42124;SDS011;27787;44.594;11.046;2022-12-11T12:32:48;29.10;;;13.38;;
42124;SDS011;27787;44.594;11.046;2022-12-11T12:35:39;26.02;;;12.73;;
42124;SDS011;27787;44.594;11.046;2022-12-11T12:44:21;23.83;;;10.88;;
42124;SDS011;27787;44.594;11.046;2022-12-11T12:47:10;55.38;;;21.33;;
42124;SDS011;27787;44.594;11.046;2022-12-11T12:49:57;27.08;;;12.25;;
42124;SDS011;27787;44.594;11.046;2022-12-11T12:52:44;25.88;;;11.52;;
42124;SDS011;27787;44.594;11.046;2022-12-11T12:55:30;24.92;;;12.40;;
42124;SDS011;27787;44.594;11.046;2022-12-11T12:58:27;21.30;;;10.68;;
42124;SDS011;27787;44.594;11.046;2022-12-11T13:01:21;20.92;;;10.65;;
42124;SDS011;27787;44.594;11.046;2022-12-11T13:04:25;22.92;;;10.88;;
42124;SDS011;27787;44.594;11.046;2022-12-11T13:07:14;23.80;;;12.30;;
42124;SDS011;27787;44.594;11.046;2022-12-11T13:10:03;25.90;;;11.20;;
42124;SDS011;27787;44.594;11.046;2022-12-11T13:13:24;24.98;;;11.25;;
42124;SDS011;27787;44.594;11.046;2022-12-11T13:16:39;21.23;;;10.52;;
42124;SDS011;27787;44.594;11.046;2022-12-11T13:19:34;22.48;;;10.93;;
42124;SDS011;27787;44.594;11.046;2022-12-11T13:22:22;18.13;;;10.05;;
42124;SDS011;27787;44.594;11.046;2022-12-11T13:25:24;19.15;;;10.30;;
42124;SDS011;27787;44.594;11.046;2022-12-11T13:28:22;17.73;;;9.93;;
42124;SDS011;27787;44.594;11.046;2022-12-11T13:34:05;23.27;;;11.23;;
42124;SDS011;27787;44.594;11.046;2022-12-11T13:40:27;21.20;;;10.70;;
42124;SDS011;27787;44.594;11.046;2022-12-11T13:43:19;18.92;;;9.85;;
42124;SDS011;27787;44.594;11.046;2022-12-11T13:46:08;16.73;;;9.32;;
42124;SDS011;27787;44.594;11.046;2022-12-11T13:48:56;21.38;;;9.48;;
42124;SDS011;27787;44.594;11.046;2022-12-11T13:51:58;19.45;;;9.70;;
42124;SDS011;27787;44.594;11.046;2022-12-11T13:54:48;19.70;;;9.48;;
42124;SDS011;27787;44.594;11.046;2022-12-11T13:57:33;22.23;;;8.38;;
42124;SDS011;27787;44.594;11.046;2022-12-11T14:00:29;13.57;;;6.85;;
42124;SDS011;27787;44.594;11.046;2022-12-11T14:03:15;7.93;;;4.38;;
42124;SDS011;27787;44.594;11.046;2022-12-11T14:06:01;10.13;;;5.20;;
42124;SDS011;27787;44.594;11.046;2022-12-11T14:08:47;9.03;;;4.77;;
42124;SDS011;27787;44.594;11.046;2022-12-11T14:11:35;6.28;;;3.28;;
42124;SDS011;27787;44.594;11.046;2022-12-11T14:14:38;3.40;;;1.60;;
42124;SDS011;27787;44.594;11.046;2022-12-11T14:17:26;2.67;;;1.52;;
42124;SDS011;27787;44.594;11.046;2022-12-11T14:20:15;4.15;;;2.10;;
42124;SDS011;27787;44.594;11.046;2022-12-11T14:25:54;7.68;;;3.67;;
42124;SDS011;27787;44.594;11.046;2022-12-11T14:28:40;2.30;;;1.65;;
42124;SDS011;27787;44.594;11.046;2022-12-11T14:34:16;2.83;;;1.73;;
42124;SDS011;27787;44.594;11.046;2022-12-11T14:37:04;3.53;;;1.98;;
42124;SDS011;27787;44.594;11.046;2022-12-11T14:40:00;4.57;;;2.10;;
42124;SDS011;27787;44.594;11.046;2022-12-11T14:42:53;5.35;;;2.78;;
42124;SDS011;27787;44.594;11.046;2022-12-11T14:45:41;6.82;;;3.20;;
42124;SDS011;27787;44.594;11.046;2022-12-11T14:48:31;7.20;;;3.30;;
42124;SDS011;27787;44.594;11.046;2022-12-11T14:51:23;4.82;;;2.80;;
42124;SDS011;27787;44.594;11.046;2022-12-11T14:54:14;4.63;;;2.63;;
42124;SDS011;27787;44.594;11.046;2022-12-11T14:57:05;4.55;;;2.50;;
42124;SDS011;27787;44.594;11.046;2022-12-11T14:59:51;2.55;;;1.88;;
42124;SDS011;27787;44.594;11.046;2022-12-11T15:02:37;6.43;;;3.08;;
42124;SDS011;27787;44.594;11.046;2022-12-11T15:05:21;2.40;;;1.65;;
42124;SDS011;27787;44.594;11.046;2022-12-11T15:11:06;4.47;;;1.70;;
42124;SDS011;27787;44.594;11.046;2022-12-11T15:16:41;3.13;;;2.17;;
42124;SDS011;27787;44.594;11.046;2022-12-11T15:19:30;3.58;;;2.10;;
42124;SDS011;27787;44.594;11.046;2022-12-11T15:22:17;5.63;;;2.03;;
42124;SDS011;27787;44.594;11.046;2022-12-11T15:25:15;3.45;;;1.70;;
42124;SDS011;27787;44.594;11.046;2022-12-11T15:28:21;2.95;;;1.85;;
42124;SDS011;27787;44.594;11.046;2022-12-11T15:31:26;6.40;;;1.70;;
42124;SDS011;27787;44.594;11.046;2022-12-11T15:34:22;3.42;;;1.83;;
42124;SDS011;27787;44.594;11.046;2022-12-11T15:40:23;4.57;;;2.63;;
42124;SDS011;27787;44.594;11.046;2022-12-11T15:43:07;8.37;;;2.83;;
42124;SDS011;27787;44.594;11.046;2022-12-11T15:45:52;4.55;;;2.97;;
42124;SDS011;27787;44.594;11.046;2022-12-11T15:48:36;4.50;;;2.40;;
42124;SDS011;27787;44.594;11.046;2022-12-11T15:51:21;3.40;;;2.20;;
42124;SDS011;27787;44.594;11.046;2022-12-11T15:54:05;4.05;;;2.22;;
42124;SDS011;27787;44.594;11.046;2022-12-11T15:56:50;3.10;;;1.80;;
42124;SDS011;27787;44.594;11.046;2022-12-11T15:59:34;4.93;;;2.50;;
42124;SDS011;27787;44.594;11.046;2022-12-11T16:02:18;4.40;;;2.67;;
42124;SDS011;27787;44.594;11.046;2022-12-11T16:05:03;4.90;;;2.58;;
42124;SDS011;27787;44.594;11.046;2022-12-11T16:07:47;3.45;;;2.20;;
42124;SDS011;27787;44.594;11.046;2022-12-11T16:10:34;3.92;;;2.53;;
42124;SDS011;27787;44.594;11.046;2022-12-11T16:13:19;2.75;;;1.98;;
42124;SDS011;27787;44.594;11.046;2022-12-11T16:16:04;3.53;;;2.27;;
42124;SDS011;27787;44.594;11.046;2022-12-11T16:18:48;6.88;;;2.15;;
42124;SDS011;27787;44.594;11.046;2022-12-11T16:21:32;4.40;;;2.00;;
42124;SDS011;27787;44.594;11.046;2022-12-11T16:24:17;5.60;;;1.88;;
42124;SDS011;27787;44.594;11.046;2022-12-11T16:27:02;3.50;;;1.63;;
42124;SDS011;27787;44.594;11.046;2022-12-11T16:29:46;3.33;;;1.73;;
42124;SDS011;27787;44.594;11.046;2022-12-11T16:32:31;4.90;;;2.33;;
42124;SDS011;27787;44.594;11.046;2022-12-11T16:35:15;2.85;;;1.90;;
42124;SDS011;27787;44.594;11.046;2022-12-11T16:38:00;4.05;;;2.35;;
42124;SDS011;27787;44.594;11.046;2022-12-11T16:40:44;4.72;;;2.85;;
42124;SDS011;27787;44.594;11.046;2022-12-11T16:43:29;5.18;;;2.08;;
42124;SDS011;27787;44.594;11.046;2022-12-11T16:46:21;4.47;;;2.83;;
42124;SDS011;27787;44.594;11.046;2022-12-11T16:49:06;5.03;;;2.95;;
42124;SDS011;27787;44.594;11.046;2022-12-11T16:51:51;4.15;;;2.38;;
42124;SDS011;27787;44.594;11.046;2022-12-11T16:54:35;5.38;;;2.78;;
42124;SDS011;27787;44.594;11.046;2022-12-11T16:57:19;10.20;;;5.15;;
42124;SDS011;27787;44.594;11.046;2022-12-11T17:00:04;7.25;;;3.50;;
42124;SDS011;27787;44.594;11.046;2022-12-11T17:02:49;5.95;;;3.50;;
42124;SDS011;27787;44.594;11.046;2022-12-11T17:05:33;6.10;;;3.38;;
42124;SDS011;27787;44.594;11.046;2022-12-11T17:08:18;3.72;;;2.03;;
42124;SDS011;27787;44.594;11.046;2022-12-11T17:11:05;4.53;;;2.40;;
42124;SDS011;27787;44.594;11.046;2022-12-11T17:13:54;5.07;;;2.65;;
42124;SDS011;27787;44.594;11.046;2022-12-11T17:16:39;4.40;;;2.72;;
42124;SDS011;27787;44.594;11.046;2022-12-11T17:19:23;4.25;;;2.55;;
42124;SDS011;27787;44.594;11.046;2022-12-11T17:22:08;3.67;;;2.05;;
42124;SDS011;27787;44.594;11.046;2022-12-11T17:24:52;2.63;;;2.03;;
42124;SDS011;27787;44.594;11.046;2022-12-11T17:27:36;3.47;;;1.90;;
42124;SDS011;27787;44.594;11.046;2022-12-11T17:30:21;5.07;;;2.00;;
42124;SDS011;27787;44.594;11.046;2022-12-11T17:33:05;5.55;;;3.80;;
42124;SDS011;27787;44.594;11.046;2022-12-11T17:35:50;4.95;;;3.20;;
42124;SDS011;27787;44.594;11.046;2022-12-11T17:38:34;3.90;;;2.70;;
42124;SDS011;27787;44.594;11.046;2022-12-11T17:41:18;5.13;;;2.60;;
42124;SDS011;27787;44.594;11.046;2022-12-11T17:44:06;4.97;;;2.85;;
42124;SDS011;27787;44.594;11.046;2022-12-11T17:46:51;4.45;;;2.97;;
42124;SDS011;27787;44.594;11.046;2022-12-11T17:49:35;3.83;;;2.42;;
42124;SDS011;27787;44.594;11.046;2022-12-11T17:52:20;3.67;;;2.00;;
42124;SDS011;27787;44.594;11.046;2022-12-11T17:55:05;3.33;;;2.17;;
42124;SDS011;27787;44.594;11.046;2022-12-11T17:57:50;4.82;;;3.08;;
42124;SDS011;27787;44.594;11.046;2022-12-11T18:00:35;5.13;;;2.95;;
42124;SDS011;27787;44.594;11.046;2022-12-11T18:03:22;4.43;;;2.85;;